Time;durP1;ratioP1;P1;durP2;ratioP2;P2;SDS_P1;SDS_P2;PMS_P1;PMS_P2;Temp;Humidity;BMP_temperature;BMP_pressure;BME280_temperature;BME280_humidity;BME280_pressure;Samples;Min_cycle;Max_cycle;Signal;HPM_P1;HPM_P2
2024/01/22 15:34:47;;;;;;;28.05;9.43;;;3.80;88.30;;;;;;5087214;27;20125;-50
2024/01/22 15:37:12;;;;;;;26.77;8.90;;;3.80;88.90;;;;;;5075388;28;20042;-52
2024/01/22 15:39:44;;;;;;;23.42;9.52;;;3.80;88.50;;;;;;5080004;28;20032;-48
2024/01/22 15:42:11;;;;;;;26.70;11.20;;;3.70;90.00;;;;;;5085507;28;20062;-50
2024/01/22 15:44:37;;;;;;;30.52;12.38;;;3.70;89.30;;;;;;5084999;28;20686;-50
2024/01/22 15:47:03;;;;;;;34.10;12.60;;;3.70;90.00;;;;;;5086459;28;20028;-53
2024/01/22 15:49:30;;;;;;;31.98;11.82;;;3.70;89.10;;;;;;5068566;28;20032;-50
2024/01/22 15:51:56;;;;;;;31.45;11.38;;;3.80;89.50;;;;;;5087359;28;20040;-52
2024/01/22 15:54:22;;;;;;;33.03;13.68;;;3.90;89.20;;;;;;5085273;28;20044;-48
2024/01/22 15:56:48;;;;;;;34.58;13.93;;;3.80;89.30;;;;;;5085574;28;20055;-52
2024/01/22 15:59:14;;;;;;;38.43;13.63;;;3.80;89.80;;;;;;5086902;28;20451;-49
2024/01/22 16:01:40;;;;;;;33.33;14.27;;;3.80;90.50;;;;;;5089357;28;20031;-50
2024/01/22 16:04:06;;;;;;;30.73;14.18;;;3.80;89.80;;;;;;5068073;28;20096;-48
2024/01/22 16:06:32;;;;;;;29.27;11.37;;;3.90;88.20;;;;;;5089300;28;20042;-51
2024/01/22 16:08:58;;;;;;;29.90;11.85;;;3.90;87.10;;;;;;5087951;28;20131;-51
2024/01/22 16:11:25;;;;;;;34.83;12.77;;;3.80;87.60;;;;;;5092085;28;21971;-50
2024/01/22 16:13:51;;;;;;;34.33;13.07;;;3.90;87.00;;;;;;5086926;28;20040;-48
2024/01/22 16:16:17;;;;;;;35.63;13.75;;;3.90;87.10;;;;;;5086345;28;20051;-52
2024/01/22 16:18:44;;;;;;;31.92;13.27;;;3.80;87.90;;;;;;5086986;28;20047;-49
2024/01/22 16:21:12;;;;;;;29.50;13.80;;;3.80;86.80;;;;;;5086003;28;20130;-48
2024/01/22 16:23:39;;;;;;;38.92;14.73;;;3.90;85.00;;;;;;5085622;28;20055;-48
2024/01/22 16:26:06;;;;;;;36.97;15.45;;;3.90;84.40;;;;;;5085497;28;20028;-51
2024/01/22 16:28:33;;;;;;;34.13;13.65;;;3.90;84.30;;;;;;5086163;28;20035;-48
2024/01/22 16:31:01;;;;;;;42.20;15.55;;;4.00;83.10;;;;;;5087298;28;20106;-49
2024/01/22 16:33:26;;;;;;;;;;;4.00;84.70;;;;;;5085003;28;20043;-49
2024/01/22 16:35:53;;;;;;;41.17;16.85;;;4.00;83.30;;;;;;5087954;28;19911;-52
2024/01/22 16:38:19;;;;;;;36.78;17.10;;;3.90;85.30;;;;;;5086874;28;20086;-47
2024/01/22 16:40:45;;;;;;;38.92;15.82;;;3.90;84.20;;;;;;5086799;28;20044;-48
2024/01/22 16:43:10;;;;;;;41.53;17.30;;;3.90;84.40;;;;;;5083368;28;20019;-49
2024/01/22 16:45:36;;;;;;;43.92;16.65;;;3.90;86.30;;;;;;5074793;28;20066;-52
2024/01/22 16:48:02;;;;;;;41.45;16.27;;;3.80;87.40;;;;;;5072666;28;20093;-51
2024/01/22 16:50:28;;;;;;;39.55;15.75;;;3.80;86.90;;;;;;5072590;28;20031;-50
2024/01/22 16:52:54;;;;;;;40.35;15.80;;;3.90;83.90;;;;;;5069991;28;20055;-52
2024/01/22 16:55:22;;;;;;;42.53;16.08;;;3.90;84.20;;;;;;5070443;28;20429;-48
2024/01/22 16:57:48;;;;;;;43.58;17.48;;;3.90;84.80;;;;;;5054273;28;20114;-49
2024/01/22 17:00:15;;;;;;;44.13;17.35;;;3.90;84.60;;;;;;5068605;28;20036;-52
2024/01/22 17:02:41;;;;;;;42.15;16.63;;;3.90;84.00;;;;;;5072264;28;20036;-50
2024/01/22 17:05:09;;;;;;;51.20;18.75;;;4.00;83.80;;;;;;5066847;28;20571;-52
2024/01/22 17:07:35;;;;;;;31.00;12.45;;;3.90;85.00;;;;;;5071907;28;20044;-52
2024/01/22 17:10:01;;;;;;;24.45;11.13;;;3.90;84.30;;;;;;5071825;28;20123;-50
2024/01/22 17:12:27;;;;;;;55.53;19.98;;;3.90;83.70;;;;;;5072243;28;20054;-51
2024/01/22 17:14:52;;;;;;;39.15;14.30;;;3.80;86.80;;;;;;5066852;28;21172;-50
2024/01/22 17:17:18;;;;;;;66.07;22.95;;;3.90;84.50;;;;;;5071350;28;20501;-51
2024/01/22 17:19:44;;;;;;;50.70;18.02;;;3.90;85.50;;;;;;5072024;28;20450;-49
2024/01/22 17:22:09;;;;;;;30.80;12.18;;;3.90;85.10;;;;;;5055816;28;20020;-50
2024/01/22 17:24:36;;;;;;;39.47;14.73;;;3.80;85.80;;;;;;5070275;28;20020;-50
2024/01/22 17:27:02;;;;;;;37.25;15.00;;;3.90;84.90;;;;;;5056371;28;20040;-55
2024/01/22 17:29:28;;;;;;;30.17;13.85;;;3.80;86.50;;;;;;5072302;28;20825;-50
2024/01/22 17:31:54;;;;;;;34.25;14.40;;;3.80;88.70;;;;;;5071645;28;20468;-49
2024/01/22 17:34:19;;;;;;;35.45;16.25;;;3.70;88.90;;;;;;5067937;28;20878;-48
2024/01/22 17:36:45;;;;;;;27.80;12.23;;;3.60;89.70;;;;;;5072243;28;20031;-48
2024/01/22 17:39:11;;;;;;;30.60;13.68;;;3.60;89.10;;;;;;5073757;28;20028;-50
2024/01/22 17:41:37;;;;;;;21.85;9.20;;;3.60;89.10;;;;;;5073710;28;20024;-47
2024/01/22 17:44:03;;;;;;;18.43;9.10;;;3.70;87.60;;;;;;5066517;28;20028;-49
2024/01/22 17:46:29;;;;;;;30.60;13.05;;;3.70;88.50;;;;;;5071360;28;20767;-51
2024/01/22 17:48:55;;;;;;;29.45;12.55;;;3.60;89.30;;;;;;5071426;28;20031;-49
2024/01/22 17:51:22;;;;;;;37.95;13.85;;;3.70;88.60;;;;;;5053903;28;20590;-50
2024/01/22 17:53:47;;;;;;;31.35;13.77;;;3.60;89.90;;;;;;5064026;28;20044;-51
2024/01/22 17:56:13;;;;;;;33.83;14.95;;;3.60;90.10;;;;;;5070202;28;20074;-49
2024/01/22 17:58:39;;;;;;;27.02;12.98;;;3.60;90.10;;;;;;5071449;28;20089;-52
2024/01/22 18:01:04;;;;;;;26.73;11.15;;;3.60;89.80;;;;;;5072195;28;20842;-50
2024/01/22 18:03:30;;;;;;;30.45;13.10;;;3.60;90.00;;;;;;5064490;28;20123;-51
2024/01/22 18:05:56;;;;;;;32.30;11.40;;;3.60;89.60;;;;;;5045004;28;20044;-48
2024/01/22 18:08:22;;;;;;;30.63;12.68;;;3.60;88.20;;;;;;5072375;28;20424;-46
2024/01/22 18:10:50;;;;;;;30.25;11.68;;;3.60;90.20;;;;;;5067645;28;20051;-51
2024/01/22 18:13:16;;;;;;;31.02;13.40;;;3.60;89.00;;;;;;5071198;28;20135;-54
2024/01/22 18:15:42;;;;;;;26.42;11.32;;;3.60;90.10;;;;;;5096725;28;20111;-52
2024/01/22 18:18:08;;;;;;;21.80;9.57;;;3.60;88.70;;;;;;5098695;28;20024;-47
2024/01/22 18:20:34;;;;;;;23.27;10.98;;;3.50;90.20;;;;;;5068341;28;20519;-48
2024/01/22 18:23:00;;;;;;;32.00;13.30;;;3.50;90.40;;;;;;5068698;28;20044;-50
2024/01/22 18:25:26;;;;;;;26.23;10.68;;;3.60;90.20;;;;;;5068386;28;20789;-52
2024/01/22 18:27:52;;;;;;;24.85;12.05;;;3.60;89.10;;;;;;5071236;28;20376;-51
2024/01/22 18:30:18;;;;;;;22.65;10.15;;;3.60;90.00;;;;;;5068920;28;20020;-48
2024/01/22 18:32:44;;;;;;;23.00;11.07;;;3.70;89.00;;;;;;5067751;28;20483;-47
2024/01/22 18:35:10;;;;;;;19.67;9.55;;;3.70;89.40;;;;;;5087207;28;20024;-54
2024/01/22 18:37:35;;;;;;;22.05;11.13;;;3.60;89.90;;;;;;5087250;28;20020;-52
2024/01/22 18:40:03;;;;;;;24.20;11.23;;;3.60;90.30;;;;;;5086579;28;20103;-50
2024/01/22 18:42:29;;;;;;;23.25;10.48;;;3.70;90.60;;;;;;5086742;28;20036;-51
2024/01/22 18:44:55;;;;;;;26.93;10.97;;;3.60;90.30;;;;;;5068191;28;20023;-53
2024/01/22 18:47:20;;;;;;;30.20;13.57;;;3.60;91.00;;;;;;5086909;28;20426;-51
2024/01/22 18:49:46;;;;;;;56.53;26.92;;;3.60;91.10;;;;;;5085404;28;20028;-52
2024/01/22 18:52:12;;;;;;;32.58;15.40;;;3.50;91.80;;;;;;5085838;28;20070;-47
2024/01/22 18:54:38;;;;;;;37.15;15.32;;;3.50;92.00;;;;;;5086078;28;20035;-48
2024/01/22 18:57:04;;;;;;;26.17;14.32;;;3.50;92.20;;;;;;5086598;28;20164;-48
2024/01/22 18:59:30;;;;;;;31.23;14.10;;;3.40;92.40;;;;;;5086562;28;20024;-47
2024/01/22 19:01:55;;;;;;;36.00;14.82;;;3.40;92.40;;;;;;5087440;28;20031;-48
2024/01/22 19:04:21;;;;;;;32.00;13.55;;;3.40;92.30;;;;;;5087103;28;20490;-51
2024/01/22 19:06:47;;;;;;;26.15;11.80;;;3.40;92.20;;;;;;5087298;28;20050;-53
2024/01/22 19:09:13;;;;;;;33.92;14.15;;;3.50;91.90;;;;;;5086802;28;20807;-50
2024/01/22 19:11:39;;;;;;;32.10;14.63;;;3.50;92.10;;;;;;5086933;28;20101;-48
2024/01/22 19:14:05;;;;;;;29.65;14.00;;;3.50;92.20;;;;;;5086914;28;20422;-49
2024/01/22 19:16:31;;;;;;;26.77;12.32;;;3.50;92.80;;;;;;5086804;28;20020;-49
2024/01/22 19:19:00;;;;;;;22.58;10.90;;;3.60;93.00;;;;;;5086852;28;20127;-49
2024/01/22 19:21:25;;;;;;;22.30;11.05;;;3.60;94.00;;;;;;5086532;28;20039;-50
2024/01/22 19:23:51;;;;;;;28.67;12.73;;;3.70;94.20;;;;;;5086817;28;20028;-50
2024/01/22 19:26:17;;;;;;;22.48;11.30;;;3.60;95.60;;;;;;5086631;28;20024;-46
2024/01/22 19:28:43;;;;;;;22.85;10.82;;;3.60;95.40;;;;;;5086929;28;20497;-50
2024/01/22 19:31:08;;;;;;;26.55;12.77;;;3.50;96.30;;;;;;5051464;28;20436;-48
2024/01/22 19:33:34;;;;;;;26.83;11.75;;;3.50;96.60;;;;;;5085834;28;20375;-48
2024/01/22 19:36:00;;;;;;;27.13;12.63;;;3.50;98.00;;;;;;5086970;28;20108;-47
2024/01/22 19:38:25;;;;;;;25.60;13.30;;;3.40;98.30;;;;;;5086520;28;20028;-48
2024/01/22 19:40:51;;;;;;;20.88;11.45;;;3.40;99.10;;;;;;5086455;28;20020;-50
2024/01/22 19:43:19;;;;;;;26.80;12.93;;;3.40;99.90;;;;;;5086308;28;20024;-52
2024/01/22 19:45:45;;;;;;;29.60;13.23;;;3.30;99.90;;;;;;5086233;28;20589;-49
2024/01/22 19:48:11;;;;;;;25.80;12.77;;;3.20;99.90;;;;;;5085959;28;20028;-49
2024/01/22 19:50:37;;;;;;;29.92;13.98;;;3.10;99.90;;;;;;5086804;28;20451;-50
2024/01/22 19:53:03;;;;;;;30.95;14.98;;;2.90;99.90;;;;;;5085813;28;20403;-49
2024/01/22 19:55:29;;;;;;;29.63;14.68;;;2.80;99.90;;;;;;5067668;28;20135;-47
2024/01/22 19:57:55;;;;;;;29.30;14.15;;;2.80;99.90;;;;;;5085451;28;20085;-45
2024/01/22 20:00:21;;;;;;;35.05;15.13;;;2.80;99.90;;;;;;5085073;28;20031;-49
2024/01/22 20:02:47;;;;;;;26.05;14.32;;;2.80;99.90;;;;;;5085891;28;20024;-49
2024/01/22 20:05:13;;;;;;;34.22;15.85;;;2.80;99.90;;;;;;5085516;28;20024;-48
2024/01/22 20:07:38;;;;;;;35.88;17.67;;;2.80;99.90;;;;;;5085117;28;20024;-51
2024/01/22 20:10:04;;;;;;;36.30;17.13;;;2.80;99.90;;;;;;5085697;28;20101;-50
2024/01/22 20:12:30;;;;;;;35.35;16.83;;;2.80;99.90;;;;;;5085764;28;20023;-46
2024/01/22 20:14:56;;;;;;;32.15;15.45;;;2.80;99.90;;;;;;5085624;28;20020;-47
2024/01/22 20:17:21;;;;;;;37.15;16.70;;;2.80;99.90;;;;;;5085832;28;20426;-46
2024/01/22 20:19:47;;;;;;;38.60;18.00;;;2.80;99.90;;;;;;5086185;28;20020;-48
2024/01/22 20:22:13;;;;;;;40.72;16.52;;;2.80;99.90;;;;;;5089323;28;20034;-48
2024/01/22 20:24:39;;;;;;;43.50;17.98;;;2.80;99.90;;;;;;5088922;28;20027;-47
2024/01/22 20:27:05;;;;;;;41.22;17.27;;;2.90;99.90;;;;;;5088406;28;20024;-46
2024/01/22 20:29:30;;;;;;;51.78;20.65;;;2.90;99.90;;;;;;5088044;28;20027;-47
2024/01/22 20:31:57;;;;;;;36.88;17.40;;;2.90;99.90;;;;;;5087960;28;20056;-48
2024/01/22 20:34:23;;;;;;;39.72;18.42;;;3.00;99.90;;;;;;5069929;28;20144;-49
2024/01/22 20:36:48;;;;;;;37.10;17.63;;;3.00;99.90;;;;;;5088513;28;20063;-48
2024/01/22 20:39:14;;;;;;;37.88;15.60;;;3.00;99.90;;;;;;5087068;28;20056;-49
2024/01/22 20:41:41;;;;;;;39.10;17.20;;;3.10;99.90;;;;;;5050659;28;20028;-46
2024/01/22 20:44:07;;;;;;;31.10;16.23;;;3.10;99.90;;;;;;5068701;28;20033;-52
2024/01/22 20:46:33;;;;;;;32.13;15.13;;;3.10;99.90;;;;;;5067726;28;20380;-50
2024/01/22 20:48:59;;;;;;;34.80;16.40;;;3.20;99.90;;;;;;5069278;28;20032;-47
2024/01/22 20:51:25;;;;;;;29.20;12.80;;;3.20;99.90;;;;;;5069210;28;20024;-52
2024/01/22 20:53:51;;;;;;;26.17;13.02;;;3.30;99.90;;;;;;5068866;28;20123;-51
2024/01/22 20:56:19;;;;;;;28.35;13.65;;;3.30;99.90;;;;;;5069137;28;20111;-50
2024/01/22 20:58:45;;;;;;;34.50;13.55;;;3.20;99.90;;;;;;5083674;28;20542;-51
2024/01/22 21:01:12;;;;;;;27.85;12.85;;;3.30;99.90;;;;;;5089876;28;21009;-49
2024/01/22 21:03:38;;;;;;;29.58;13.13;;;3.20;99.90;;;;;;5088911;28;20036;-47
2024/01/22 21:06:05;;;;;;;28.40;13.68;;;3.30;99.90;;;;;;5089201;28;20115;-49
2024/01/22 21:08:32;;;;;;;34.95;16.17;;;3.20;99.90;;;;;;5075038;28;20032;-48
2024/01/22 21:10:58;;;;;;;33.45;15.38;;;3.10;99.90;;;;;;5066655;28;20059;-50
2024/01/22 21:13:24;;;;;;;38.60;16.77;;;3.00;99.90;;;;;;5067308;28;20734;-50
2024/01/22 21:15:50;;;;;;;40.65;17.25;;;3.10;99.90;;;;;;5067334;28;20479;-49
2024/01/22 21:18:16;;;;;;;41.63;17.88;;;3.10;99.90;;;;;;5066148;28;20558;-49
2024/01/22 21:20:43;;;;;;;37.08;17.65;;;3.10;99.90;;;;;;5067771;28;20035;-50
2024/01/22 21:23:09;;;;;;;40.40;18.15;;;3.10;99.90;;;;;;5067313;28;20150;-50
2024/01/22 21:25:34;;;;;;;42.63;17.98;;;3.10;99.90;;;;;;5068193;28;20116;-51
2024/01/22 21:28:00;;;;;;;29.73;13.10;;;3.10;99.90;;;;;;5064764;28;20102;-51
2024/01/22 21:30:26;;;;;;;35.85;16.90;;;3.10;99.90;;;;;;5067728;28;20410;-50
2024/01/22 21:32:52;;;;;;;53.38;20.58;;;3.00;99.90;;;;;;5066715;28;20602;-50
2024/01/22 21:35:18;;;;;;;36.58;16.17;;;3.00;99.90;;;;;;5068058;28;20567;-48
2024/01/22 21:37:44;;;;;;;39.30;16.17;;;3.10;99.90;;;;;;5064320;28;20096;-50
2024/01/22 21:40:10;;;;;;;46.78;19.40;;;3.10;99.90;;;;;;5048779;28;20072;-51
2024/01/22 21:42:36;;;;;;;54.33;20.88;;;3.10;99.90;;;;;;5068152;28;20847;-48
2024/01/22 21:45:02;;;;;;;42.53;16.92;;;3.10;99.90;;;;;;5067265;28;20043;-47
2024/01/22 21:47:28;;;;;;;41.15;17.45;;;3.10;99.90;;;;;;5064023;28;20054;-48
2024/01/22 21:49:55;;;;;;;37.40;16.58;;;3.10;99.90;;;;;;5065959;28;20036;-52
2024/01/22 21:52:20;;;;;;;44.17;18.00;;;3.10;99.90;;;;;;5067078;28;20138;-48
2024/01/22 21:54:46;;;;;;;36.70;16.08;;;3.00;99.90;;;;;;5067799;28;20046;-47
2024/01/22 21:57:12;;;;;;;41.95;19.25;;;2.90;99.90;;;;;;5064164;28;21124;-47
2024/01/22 21:59:39;;;;;;;36.88;18.67;;;2.70;99.90;;;;;;5066829;28;20034;-45
2024/01/22 22:02:06;;;;;;;43.45;19.23;;;2.70;99.90;;;;;;5066895;28;20035;-49
2024/01/22 22:04:31;;;;;;;39.55;18.27;;;2.60;99.90;;;;;;5066408;28;20032;-48
2024/01/22 22:06:57;;;;;;;43.45;19.60;;;2.50;99.90;;;;;;5065292;28;20020;-49
2024/01/22 22:09:24;;;;;;;42.00;19.55;;;2.50;99.90;;;;;;5066376;28;20718;-47
2024/01/22 22:11:50;;;;;;;45.05;20.98;;;2.50;99.90;;;;;;5065908;28;20032;-51
2024/01/22 22:14:15;;;;;;;42.47;18.92;;;2.50;99.90;;;;;;5067106;28;20137;-47
2024/01/22 22:16:41;;;;;;;36.20;17.88;;;2.50;99.90;;;;;;5063945;28;20028;-47
2024/01/22 22:19:07;;;;;;;41.05;18.50;;;2.40;99.90;;;;;;5065218;28;20703;-46
2024/01/22 22:21:32;;;;;;;42.90;19.73;;;2.40;99.90;;;;;;5065445;28;20467;-48
2024/01/22 22:24:03;;;;;;;39.72;19.33;;;2.40;99.90;;;;;;5066785;28;20388;-44
2024/01/22 22:26:29;;;;;;;38.45;20.25;;;2.40;99.90;;;;;;5062893;28;20044;-46
2024/01/22 22:28:55;;;;;;;43.50;20.05;;;2.40;99.90;;;;;;5064667;28;20036;-48
2024/01/22 22:31:20;;;;;;;42.35;20.63;;;2.40;99.90;;;;;;5065901;28;20024;-46
2024/01/22 22:33:46;;;;;;;47.40;22.48;;;2.40;99.90;;;;;;5064567;28;20059;-47
2024/01/22 22:36:15;;;;;;;45.25;21.65;;;2.30;99.90;;;;;;5063305;28;20039;-46
2024/01/22 22:38:40;;;;;;;47.83;23.75;;;2.30;99.90;;;;;;5065584;28;20040;-49
2024/01/22 22:41:09;;;;;;;50.63;23.55;;;2.30;99.90;;;;;;5066612;28;20051;-50
2024/01/22 22:43:34;;;;;;;52.80;24.67;;;2.30;99.90;;;;;;5064915;28;20063;-46
2024/01/22 22:46:00;;;;;;;51.75;25.33;;;2.30;99.90;;;;;;5062845;28;20033;-47
2024/01/22 22:48:26;;;;;;;57.13;26.98;;;2.30;99.90;;;;;;5063902;28;20343;-46
2024/01/22 22:50:52;;;;;;;60.90;27.98;;;2.30;99.90;;;;;;5064688;28;20379;-49
2024/01/22 22:53:17;;;;;;;57.53;26.45;;;2.30;99.90;;;;;;5065566;28;20543;-49
2024/01/22 22:55:43;;;;;;;51.88;25.40;;;2.30;99.90;;;;;;5064991;28;20035;-49
2024/01/22 22:58:09;;;;;;;48.33;23.20;;;2.30;99.90;;;;;;5061108;28;20052;-48
2024/01/22 23:00:35;;;;;;;50.70;23.77;;;2.40;99.90;;;;;;5064396;28;20538;-46
2024/01/22 23:03:02;;;;;;;41.67;20.05;;;2.40;99.90;;;;;;5068210;28;20155;-48
2024/01/22 23:05:28;;;;;;;45.13;21.55;;;2.40;99.90;;;;;;5046401;28;20011;-49
